createdAt,value
2022-10-29T00:01:46.737Z,26.77
2022-10-29T00:04:14.516Z,23.63
2022-10-29T00:06:42.210Z,21.98
2022-10-29T00:09:11.458Z,23.35
2022-10-29T00:11:39.126Z,22.02
2022-10-29T00:14:07.004Z,23.05
2022-10-29T00:16:37.599Z,23.02
2022-10-29T00:19:07.040Z,22.98
2022-10-29T00:21:34.897Z,21.73
2022-10-29T00:24:02.565Z,18.98
2022-10-29T00:26:31.137Z,15.10
2022-10-29T00:28:58.921Z,18.20
2022-10-29T00:31:26.698Z,16.38
2022-10-29T00:33:55.177Z,16.10
2022-10-29T00:36:26.256Z,18.13
2022-10-29T00:38:53.994Z,13.65
2022-10-29T00:41:23.436Z,14.40
2022-10-29T00:43:52.589Z,13.35
2022-10-29T00:46:31.857Z,14.80
2022-10-29T00:49:00.018Z,15.07
2022-10-29T00:51:31.910Z,16.50
2022-10-29T00:54:02.513Z,12.50
2022-10-29T00:56:30.953Z,13.07
2022-10-29T00:58:58.684Z,14.48
2022-10-29T01:01:26.578Z,15.73
2022-10-29T01:03:54.295Z,13.43
2022-10-29T01:06:22.424Z,17.00
2022-10-29T01:08:51.484Z,15.75
2022-10-29T01:11:24.547Z,15.40
2022-10-29T01:14:03.952Z,17.80
2022-10-29T01:16:39.583Z,12.93
2022-10-29T01:19:15.023Z,13.10
2022-10-29T01:21:45.057Z,12.20
2022-10-29T01:24:45.978Z,13.65
2022-10-29T01:27:51.914Z,14.32
2022-10-29T01:30:24.866Z,12.45
2022-10-29T01:33:07.749Z,11.32
2022-10-29T01:35:44.587Z,14.30
2022-10-29T01:38:20.432Z,13.25
2022-10-29T01:40:52.627Z,11.95
2022-10-29T01:43:23.702Z,15.40
2022-10-29T01:45:55.211Z,12.20
2022-10-29T01:48:30.556Z,13.68
2022-10-29T01:51:05.011Z,16.13
2022-10-29T01:53:36.145Z,13.32
2022-10-29T01:56:03.873Z,10.35
2022-10-29T01:58:31.949Z,12.00
2022-10-29T02:01:05.359Z,11.18
2022-10-29T02:03:43.855Z,13.13
2022-10-29T02:06:20.200Z,13.57
2022-10-29T02:08:52.812Z,14.63
2022-10-29T02:11:24.673Z,11.02
2022-10-29T02:13:57.695Z,15.55
2022-10-29T02:16:26.422Z,14.07
2022-10-29T02:18:55.574Z,10.90
2022-10-29T02:21:23.296Z,13.57
2022-10-29T02:23:51.527Z,11.70
2022-10-29T02:26:19.253Z,10.98
2022-10-29T02:28:46.917Z,15.63
2022-10-29T02:31:14.696Z,11.43
2022-10-29T02:33:42.333Z,12.30
2022-10-29T02:36:11.415Z,11.40
2022-10-29T02:38:39.090Z,10.77
2022-10-29T02:41:06.796Z,14.47
2022-10-29T02:43:34.453Z,10.07
2022-10-29T02:46:12.738Z,14.13
2022-10-29T02:48:40.395Z,10.67
2022-10-29T02:51:08.113Z,11.20
2022-10-29T02:53:37.238Z,10.05
2022-10-29T02:56:05.677Z,10.95
2022-10-29T02:58:33.457Z,11.83
2022-10-29T03:01:01.663Z,12.30
2022-10-29T03:03:29.509Z,13.45
2022-10-29T03:05:57.228Z,15.85
2022-10-29T03:08:24.882Z,12.10
2022-10-29T03:10:55.742Z,14.10
2022-10-29T03:13:23.442Z,11.02
2022-10-29T03:15:51.133Z,11.85
2022-10-29T03:18:18.816Z,11.73
2022-10-29T03:20:47.530Z,11.27
2022-10-29T03:23:15.255Z,11.40
2022-10-29T03:25:42.976Z,9.43
2022-10-29T03:28:12.090Z,12.32
2022-10-29T03:30:39.785Z,12.38
2022-10-29T03:33:07.425Z,12.10
2022-10-29T03:35:35.253Z,11.80
2022-10-29T03:38:02.971Z,14.95
2022-10-29T03:40:30.623Z,16.42
2022-10-29T03:42:58.690Z,11.75
2022-10-29T03:45:27.893Z,13.55
2022-10-29T03:47:56.313Z,11.17
2022-10-29T03:50:24.194Z,12.50
2022-10-29T03:52:51.819Z,11.33
2022-10-29T03:55:19.538Z,11.35
2022-10-29T03:57:47.174Z,12.85
2022-10-29T04:00:15.829Z,12.10
2022-10-29T04:02:44.965Z,11.23
2022-10-29T04:05:12.711Z,14.43
2022-10-29T04:07:40.385Z,12.52
2022-10-29T04:10:08.497Z,14.07
2022-10-29T04:12:36.210Z,15.70
2022-10-29T04:15:03.874Z,11.30
2022-10-29T04:17:31.502Z,9.70
2022-10-29T04:20:00.552Z,10.00
2022-10-29T04:28:42.431Z,12.65
2022-10-29T04:30:51.317Z,11.00
2022-10-29T04:33:19.040Z,12.05
2022-10-29T04:35:52.760Z,10.00
2022-10-29T04:38:20.670Z,12.63
2022-10-29T04:40:48.347Z,12.70
2022-10-29T04:43:16.261Z,10.50
2022-10-29T04:48:11.607Z,10.80
2022-10-29T04:50:39.604Z,9.13
2022-10-29T04:53:09.300Z,12.07
2022-10-29T04:55:37.743Z,10.05
2022-10-29T04:58:05.602Z,10.45
2022-10-29T05:00:33.933Z,13.25
2022-10-29T05:03:01.594Z,9.65
2022-10-29T05:05:29.697Z,11.50
2022-10-29T05:07:58.983Z,12.63
2022-10-29T05:10:30.339Z,13.63
2022-10-29T05:12:59.462Z,13.87
2022-10-29T05:15:27.255Z,12.90
2022-10-29T05:17:55.219Z,13.65
2022-10-29T05:20:23.355Z,11.05
2022-10-29T05:22:51.015Z,14.85
2022-10-29T05:25:18.639Z,12.55
2022-10-29T05:27:47.691Z,14.65
2022-10-29T05:30:15.408Z,15.37
2022-10-29T05:32:43.109Z,11.43
2022-10-29T05:35:10.768Z,13.23
2022-10-29T05:37:38.482Z,12.43
2022-10-29T05:40:07.031Z,13.13
2022-10-29T05:42:34.684Z,13.45
2022-10-29T05:45:03.749Z,12.70
2022-10-29T05:47:31.420Z,11.68
2022-10-29T05:49:59.051Z,12.98
2022-10-29T05:52:26.712Z,12.85
2022-10-29T05:54:54.377Z,13.43
2022-10-29T05:57:22.046Z,10.32
2022-10-29T05:59:49.769Z,12.97
2022-10-29T06:02:18.933Z,13.90
2022-10-29T06:04:46.828Z,11.10
2022-10-29T06:07:14.502Z,9.02
2022-10-29T06:09:42.151Z,10.20
2022-10-29T06:12:10.079Z,10.15
2022-10-29T06:14:37.846Z,11.15
2022-10-29T06:17:05.518Z,9.48
2022-10-29T06:19:34.560Z,8.37
2022-10-29T06:22:02.265Z,10.57
2022-10-29T06:24:29.927Z,13.77
2022-10-29T06:26:57.623Z,10.55
2022-10-29T06:29:25.302Z,9.32
2022-10-29T06:31:53.127Z,10.88
2022-10-29T06:34:20.829Z,11.90
2022-10-29T06:36:49.843Z,9.77
2022-10-29T06:39:17.539Z,12.38
2022-10-29T06:41:45.195Z,10.98
2022-10-29T06:44:12.874Z,10.63
2022-10-29T06:46:41.584Z,13.13
2022-10-29T06:49:09.272Z,9.50
2022-10-29T06:51:36.868Z,12.32
2022-10-29T06:54:06.119Z,10.60
2022-10-29T06:56:34.563Z,9.65
2022-10-29T06:59:02.204Z,10.20
2022-10-29T07:01:32.817Z,12.13
2022-10-29T07:04:00.686Z,12.45
2022-10-29T07:06:30.128Z,11.55
2022-10-29T07:08:57.755Z,12.95
2022-10-29T07:11:26.945Z,15.67
2022-10-29T07:13:54.653Z,13.23
2022-10-29T07:16:22.303Z,13.70
2022-10-29T07:18:49.943Z,13.40
2022-10-29T07:21:17.553Z,14.75
2022-10-29T07:23:45.483Z,15.45
2022-10-29T07:26:13.155Z,14.40
2022-10-29T07:28:42.250Z,13.23
2022-10-29T07:31:09.932Z,13.00
2022-10-29T07:33:37.547Z,15.25
2022-10-29T07:36:05.740Z,16.15
2022-10-29T07:38:33.405Z,12.57
2022-10-29T07:41:01.131Z,16.63
2022-10-29T07:43:28.789Z,28.05
2022-10-29T07:45:57.854Z,15.38
2022-10-29T07:48:25.554Z,16.98
2022-10-29T07:50:53.188Z,16.40
2022-10-29T07:53:20.917Z,13.33
2022-10-29T07:55:53.510Z,15.95
2022-10-29T07:58:21.199Z,14.23
2022-10-29T08:00:49.007Z,16.05
2022-10-29T08:03:18.312Z,14.83
2022-10-29T08:05:55.158Z,14.90
2022-10-29T08:08:24.294Z,16.67
2022-10-29T08:10:51.957Z,17.85
2022-10-29T08:13:19.612Z,17.70
2022-10-29T08:15:47.920Z,19.40
2022-10-29T08:18:18.645Z,19.77
2022-10-29T08:20:46.631Z,18.57
2022-10-29T08:23:14.488Z,17.17
2022-10-29T08:25:42.858Z,18.75
2022-10-29T08:28:12.764Z,18.77
2022-10-29T08:30:40.614Z,18.55
2022-10-29T08:33:08.735Z,18.67
2022-10-29T08:35:37.802Z,19.70
2022-10-29T08:38:05.554Z,19.50
2022-10-29T08:40:40.667Z,21.13
2022-10-29T08:43:29.495Z,21.27
2022-10-29T08:45:57.432Z,20.90
2022-10-29T08:48:35.570Z,20.85
2022-10-29T08:51:10.913Z,20.92
2022-10-29T08:53:41.814Z,22.73
2022-10-29T08:56:15.421Z,26.08
2022-10-29T08:58:48.584Z,23.98
2022-10-29T09:01:16.387Z,22.42
2022-10-29T09:03:44.128Z,24.67
2022-10-29T09:06:16.057Z,22.58
2022-10-29T09:08:57.882Z,25.47
2022-10-29T09:11:36.979Z,21.83
2022-10-29T09:14:18.320Z,21.40
2022-10-29T09:16:50.399Z,22.90
2022-10-29T09:19:29.828Z,21.48
2022-10-29T09:22:05.594Z,21.20
2022-10-29T09:24:38.461Z,19.85
2022-10-29T09:27:12.734Z,24.40
2022-10-29T09:29:52.691Z,20.35
2022-10-29T09:32:23.470Z,20.42
2022-10-29T09:34:53.319Z,22.15
2022-10-29T09:37:26.085Z,20.98
2022-10-29T09:39:54.752Z,19.40
2022-10-29T09:42:27.833Z,20.58
2022-10-29T09:44:57.544Z,19.15
2022-10-29T09:47:33.118Z,21.13
2022-10-29T09:50:12.960Z,20.52
2022-10-29T09:52:43.231Z,20.50
2022-10-29T09:55:18.250Z,20.60
2022-10-29T09:57:46.870Z,19.20
2022-10-29T10:00:19.166Z,20.23
2022-10-29T10:02:51.862Z,21.33
2022-10-29T10:05:25.056Z,18.07
2022-10-29T10:08:07.807Z,16.88
2022-10-29T10:10:36.499Z,16.70
2022-10-29T10:13:05.729Z,17.35
2022-10-29T10:15:35.196Z,17.17
2022-10-29T10:18:04.700Z,16.07
2022-10-29T10:20:38.245Z,15.30
2022-10-29T10:23:24.285Z,15.80
2022-10-29T10:25:53.022Z,15.27
2022-10-29T10:28:22.225Z,18.08
2022-10-29T10:31:08.697Z,16.50
2022-10-29T10:33:38.024Z,18.52
2022-10-29T10:36:07.537Z,17.15
2022-10-29T10:38:45.237Z,15.43
2022-10-29T10:41:13.977Z,17.50
2022-10-29T10:43:43.935Z,14.38
2022-10-29T10:46:14.988Z,17.55
2022-10-29T10:48:42.855Z,14.70
2022-10-29T10:51:15.246Z,15.23
2022-10-29T10:53:44.388Z,13.88
2022-10-29T10:56:19.321Z,13.67
2022-10-29T10:58:51.645Z,15.98
2022-10-29T11:01:22.790Z,16.67
2022-10-29T11:03:58.769Z,13.10
2022-10-29T11:06:29.623Z,14.38
2022-10-29T11:09:03.695Z,17.85
2022-10-29T11:11:33.977Z,16.25
2022-10-29T11:14:04.715Z,17.95
2022-10-29T11:16:38.978Z,18.70
2022-10-29T11:19:13.206Z,15.73
2022-10-29T11:21:45.147Z,18.05
2022-10-29T11:24:19.293Z,16.52
2022-10-29T11:26:49.773Z,19.73
2022-10-29T11:29:22.351Z,16.23
2022-10-29T11:31:56.683Z,16.93
2022-10-29T11:34:26.072Z,18.70
2022-10-29T11:36:58.221Z,16.15
2022-10-29T11:39:32.673Z,11.53
2022-10-29T11:42:01.220Z,15.32
2022-10-29T11:44:30.724Z,15.63
2022-10-29T11:47:07.809Z,12.88
2022-10-29T11:49:48.977Z,14.23
2022-10-29T11:52:20.125Z,14.02
2022-10-29T11:54:55.484Z,12.55
2022-10-29T11:57:26.153Z,12.55
2022-10-29T12:00:03.415Z,14.75
2022-10-29T12:02:45.178Z,15.25
2022-10-29T12:05:17.559Z,13.63
2022-10-29T12:07:58.221Z,12.23
2022-10-29T12:10:35.277Z,16.55
2022-10-29T12:13:07.093Z,13.48
2022-10-29T12:15:40.105Z,12.75
2022-10-29T12:18:16.789Z,12.75
2022-10-29T12:20:49.003Z,12.95
2022-10-29T12:23:26.222Z,15.07
2022-10-29T12:26:04.725Z,18.25
2022-10-29T12:28:42.830Z,13.55
2022-10-29T12:31:20.255Z,14.35
2022-10-29T12:33:52.160Z,13.25
2022-10-29T12:36:25.599Z,12.35
2022-10-29T12:38:55.188Z,13.45
2022-10-29T12:41:26.111Z,12.63
2022-10-29T12:44:00.211Z,12.73
2022-10-29T12:46:32.739Z,13.17
2022-10-29T12:49:06.415Z,10.45
2022-10-29T12:51:40.889Z,10.57
2022-10-29T12:54:19.360Z,11.23
2022-10-29T12:56:50.431Z,12.45
2022-10-29T12:59:33.579Z,9.88
2022-10-29T13:02:30.214Z,10.10
2022-10-29T13:05:18.800Z,12.05
2022-10-29T13:08:32.432Z,11.57
2022-10-29T13:11:00.223Z,12.93
2022-10-29T13:13:47.871Z,11.27
2022-10-29T13:16:17.573Z,11.27
2022-10-29T13:19:01.404Z,9.10
2022-10-29T13:22:00.881Z,9.90
2022-10-29T13:24:29.291Z,9.60
2022-10-29T13:26:59.954Z,10.77
2022-10-29T13:29:50.204Z,15.98
2022-10-29T13:32:34.312Z,10.83
2022-10-29T13:35:03.612Z,11.15
2022-10-29T13:38:11.183Z,11.00
2022-10-29T13:41:09.524Z,16.50
2022-10-29T13:45:14.866Z,9.77
2022-10-29T13:47:42.597Z,10.20
2022-10-29T13:50:12.012Z,10.95
2022-10-29T13:52:41.686Z,9.37
2022-10-29T13:55:10.222Z,10.57
2022-10-29T13:57:40.034Z,10.60
2022-10-29T14:00:16.422Z,11.37
2022-10-29T14:02:51.591Z,11.67
2022-10-29T14:05:22.076Z,9.07
2022-10-29T14:07:55.798Z,11.77
2022-10-29T14:10:26.452Z,8.40
2022-10-29T14:12:58.485Z,12.50
2022-10-29T14:15:26.420Z,11.70
2022-10-29T14:17:55.446Z,9.30
2022-10-29T14:20:25.758Z,10.20
2022-10-29T14:22:53.896Z,8.85
2022-10-29T14:25:29.851Z,10.85
2022-10-29T14:28:17.751Z,11.00
2022-10-29T14:30:45.607Z,9.02
2022-10-29T14:33:24.770Z,9.73
2022-10-29T14:35:53.666Z,8.63
2022-10-29T14:38:23.410Z,10.85
2022-10-29T14:40:51.112Z,11.07
2022-10-29T14:45:18.596Z,10.63
2022-10-29T14:47:50.167Z,9.95
2022-10-29T14:50:20.163Z,8.75
2022-10-29T14:52:53.612Z,12.23
2022-10-29T14:55:23.946Z,13.93
2022-10-29T14:57:56.023Z,12.63
2022-10-29T15:00:26.640Z,13.20
2022-10-29T15:02:55.458Z,10.80
2022-10-29T15:05:26.176Z,9.43
2022-10-29T15:08:04.916Z,10.77
2022-10-29T15:12:02.839Z,11.25
2022-10-29T15:14:37.649Z,11.10
2022-10-29T15:17:17.577Z,12.80
2022-10-29T15:19:46.758Z,9.25
2022-10-29T15:22:19.693Z,10.20
2022-10-29T15:24:49.247Z,13.03
2022-10-29T15:27:18.309Z,11.27
2022-10-29T15:29:48.034Z,12.75
2022-10-29T15:32:17.452Z,12.50
2022-10-29T15:34:48.513Z,13.88
2022-10-29T15:37:24.618Z,12.57
2022-10-29T15:40:01.450Z,11.73
2022-10-29T15:42:32.132Z,10.63
2022-10-29T15:45:24.216Z,12.07
2022-10-29T15:47:54.395Z,10.73
2022-10-29T15:50:24.061Z,14.10
2022-10-29T15:52:56.938Z,10.25
2022-10-29T15:55:27.537Z,11.18
2022-10-29T15:58:00.830Z,11.18
2022-10-29T16:01:36.146Z,13.20
2022-10-29T16:04:03.965Z,14.03
2022-10-29T16:06:32.087Z,12.25
2022-10-29T16:09:01.015Z,10.25
2022-10-29T16:11:28.710Z,12.45
2022-10-29T16:13:56.393Z,12.80
2022-10-29T16:16:25.183Z,10.57
2022-10-29T16:18:54.526Z,13.10
2022-10-29T16:21:24.303Z,10.38
2022-10-29T16:23:52.729Z,10.68
2022-10-29T16:26:22.187Z,11.07
2022-10-29T16:28:49.807Z,15.93
2022-10-29T16:31:20.341Z,13.23
2022-10-29T16:33:48.408Z,10.45
2022-10-29T16:36:17.702Z,8.73
2022-10-29T16:38:45.355Z,13.50
2022-10-29T16:41:13.374Z,16.00
2022-10-29T16:43:41.236Z,11.50
2022-10-29T16:46:09.116Z,13.50
2022-10-29T16:48:36.829Z,12.70
2022-10-29T16:51:04.921Z,13.30
2022-10-29T16:53:34.097Z,14.15
2022-10-29T16:56:01.800Z,11.20
2022-10-29T16:58:29.468Z,11.43
2022-10-29T17:01:03.192Z,16.48
2022-10-29T17:03:30.963Z,12.48
2022-10-29T17:06:03.887Z,15.00
2022-10-29T17:08:34.347Z,12.70
2022-10-29T17:11:02.052Z,16.30
2022-10-29T17:13:29.640Z,20.40
2022-10-29T17:15:57.270Z,19.45
2022-10-29T17:18:25.031Z,13.77
2022-10-29T17:20:57.034Z,15.63
2022-10-29T17:23:24.763Z,12.27
2022-10-29T17:25:54.890Z,14.30
2022-10-29T17:28:22.771Z,13.20
2022-10-29T17:30:50.465Z,13.88
2022-10-29T17:33:18.453Z,12.40
2022-10-29T17:35:46.492Z,11.30
2022-10-29T17:38:14.150Z,14.95
2022-10-29T17:40:44.606Z,15.07
2022-10-29T17:43:13.675Z,14.73
2022-10-29T17:45:43.628Z,11.10
2022-10-29T17:48:12.612Z,12.77
2022-10-29T17:50:40.221Z,13.63
2022-10-29T17:53:07.817Z,12.35
2022-10-29T17:55:35.437Z,15.77
2022-10-29T17:58:03.124Z,14.60
2022-10-29T18:00:32.108Z,15.73
2022-10-29T18:05:32.587Z,14.05
2022-10-29T18:08:00.472Z,15.35
2022-10-29T18:10:28.960Z,11.63
2022-10-29T18:12:56.578Z,11.93
2022-10-29T18:15:24.301Z,13.80
2022-10-29T18:20:25.812Z,13.43
2022-10-29T18:22:55.833Z,13.80
2022-10-29T18:25:23.865Z,13.50
2022-10-29T18:27:55.426Z,12.90
2022-10-29T18:30:23.807Z,13.82
2022-10-29T18:32:52.844Z,14.80
2022-10-29T18:35:20.488Z,12.27
2022-10-29T18:37:48.161Z,14.65
2022-10-29T18:40:15.891Z,12.98
2022-10-29T18:42:43.504Z,12.95
2022-10-29T18:45:11.796Z,11.77
2022-10-29T18:47:39.335Z,11.47
2022-10-29T18:50:09.123Z,12.38
2022-10-29T18:52:36.793Z,10.80
2022-10-29T18:55:04.719Z,13.40
2022-10-29T18:57:33.065Z,10.67
2022-10-29T19:00:00.649Z,15.10
2022-10-29T19:02:28.333Z,11.90
2022-10-29T19:04:56.076Z,13.15
2022-10-29T19:07:25.147Z,13.15
2022-10-29T19:09:52.754Z,11.93
2022-10-29T19:12:20.441Z,14.50
2022-10-29T19:14:48.061Z,11.82
2022-10-29T19:17:15.665Z,15.07
2022-10-29T19:19:43.228Z,14.65
2022-10-29T19:22:10.889Z,14.27
2022-10-29T19:24:39.938Z,13.40
2022-10-29T19:27:07.568Z,17.40
2022-10-29T19:29:35.172Z,14.32
2022-10-29T19:32:02.773Z,12.63
2022-10-29T19:34:30.517Z,13.45
2022-10-29T19:36:58.186Z,12.00
2022-10-29T19:39:25.852Z,13.20
2022-10-29T19:41:54.854Z,11.57
2022-10-29T19:44:22.464Z,10.80
2022-10-29T19:46:51.038Z,11.50
2022-10-29T19:49:18.876Z,15.77
2022-10-29T19:51:46.519Z,14.27
2022-10-29T19:54:14.103Z,14.27
2022-10-29T19:56:41.679Z,12.82
2022-10-29T19:59:10.813Z,13.32
2022-10-29T20:01:41.648Z,16.92
2022-10-29T20:04:09.498Z,14.90
2022-10-29T20:06:37.176Z,12.80
2022-10-29T20:09:05.069Z,12.05
2022-10-29T20:11:32.752Z,13.93
2022-10-29T20:14:00.383Z,12.43
2022-10-29T20:16:29.403Z,22.50
2022-10-29T20:18:57.005Z,11.52
2022-10-29T20:21:24.647Z,12.57
2022-10-29T20:23:52.494Z,13.13
2022-10-29T20:26:20.077Z,14.45
2022-10-29T20:28:47.668Z,8.70
2022-10-29T20:31:29.748Z,13.25
2022-10-29T20:34:00.915Z,10.90
2022-10-29T20:36:30.611Z,10.52
2022-10-29T20:38:58.627Z,12.00
2022-10-29T20:41:26.465Z,11.97
2022-10-29T20:43:55.510Z,15.88
2022-10-29T20:46:23.883Z,10.98
2022-10-29T20:48:51.591Z,11.63
2022-10-29T20:51:22.450Z,16.00
2022-10-29T20:53:50.048Z,12.38
2022-10-29T20:56:18.867Z,13.02
2022-10-29T20:58:46.674Z,13.02
2022-10-29T21:01:16.333Z,11.30
2022-10-29T21:03:44.689Z,10.13
2022-10-29T21:06:16.915Z,10.35
2022-10-29T21:08:46.884Z,14.73
2022-10-29T21:11:15.347Z,13.82
2022-10-29T21:13:42.992Z,13.02
2022-10-29T21:16:16.631Z,11.93
2022-10-29T21:18:45.408Z,11.13
2022-10-29T21:21:13.117Z,10.25
2022-10-29T21:23:40.999Z,13.23
2022-10-29T21:26:13.256Z,12.25
2022-10-29T21:28:40.931Z,13.35
2022-10-29T21:31:08.601Z,9.80
2022-10-29T21:33:36.599Z,10.73
2022-10-29T21:36:04.392Z,11.27
2022-10-29T21:38:33.262Z,13.52
2022-10-29T21:41:01.936Z,13.48
2022-10-29T21:43:31.039Z,13.35
2022-10-29T21:45:58.745Z,11.05
2022-10-29T21:48:26.823Z,10.63
2022-10-29T21:51:00.930Z,12.90
2022-10-29T21:53:28.545Z,13.20
2022-10-29T21:55:59.661Z,13.30
2022-10-29T21:58:27.995Z,12.02
2022-10-29T22:01:15.206Z,16.85
2022-10-29T22:03:44.571Z,10.70
2022-10-29T22:06:14.669Z,11.00
2022-10-29T22:08:42.522Z,11.77
2022-10-29T22:11:10.618Z,13.93
2022-10-29T22:13:38.566Z,9.85
2022-10-29T22:16:07.526Z,11.40
2022-10-29T22:18:37.265Z,12.70
2022-10-29T22:21:06.598Z,10.10
2022-10-29T22:23:34.392Z,14.13
2022-10-29T22:26:02.084Z,12.00
2022-10-29T22:28:29.775Z,11.43
2022-10-29T22:31:01.225Z,10.23
2022-10-29T22:33:29.355Z,11.35
2022-10-29T22:36:04.609Z,13.00
2022-10-29T22:38:32.263Z,11.60
2022-10-29T22:41:04.903Z,12.27
2022-10-29T22:43:32.880Z,12.50
2022-10-29T22:46:00.538Z,14.37
2022-10-29T22:48:28.142Z,11.57
2022-10-29T22:51:01.739Z,12.07
2022-10-29T22:53:29.519Z,11.80
2022-10-29T22:55:57.151Z,13.98
2022-10-29T22:58:24.979Z,9.77
2022-10-29T23:01:02.690Z,10.43
2022-10-29T23:03:30.555Z,10.60
2022-10-29T23:05:58.434Z,10.25
2022-10-29T23:08:27.589Z,13.40
2022-10-29T23:10:55.601Z,11.47
2022-10-29T23:13:23.342Z,15.65
2022-10-29T23:15:52.155Z,11.75
2022-10-29T23:18:20.071Z,10.93
2022-10-29T23:20:47.691Z,12.35
2022-10-29T23:23:15.497Z,10.52
2022-10-29T23:25:44.516Z,11.27
2022-10-29T23:28:12.189Z,11.57
2022-10-29T23:30:39.759Z,10.25
2022-10-29T23:33:07.433Z,11.48
2022-10-29T23:35:35.428Z,10.40
2022-10-29T23:38:03.068Z,12.88
2022-10-29T23:40:30.752Z,10.05
2022-10-29T23:42:59.763Z,10.90
2022-10-29T23:45:27.441Z,11.38
2022-10-29T23:47:55.470Z,12.23
2022-10-29T23:50:23.400Z,11.60
2022-10-29T23:52:51.072Z,9.70
2022-10-29T23:55:18.786Z,10.07
2022-10-29T23:57:46.501Z,13.43
